createdAt,value
2023-04-10T00:00:30.889Z,38.63
2023-04-10T00:01:02.448Z,39.97
2023-04-10T00:01:36.181Z,37.97
2023-04-10T00:02:07.920Z,36.72
2023-04-10T00:02:39.563Z,40.08
2023-04-10T00:03:11.441Z,42.95
2023-04-10T00:03:43.461Z,37.47
2023-04-10T00:04:16.349Z,36.15
2023-04-10T00:04:48.093Z,38.67
2023-04-10T00:05:19.742Z,33.10
2023-04-10T00:05:51.578Z,38.58
2023-04-10T00:06:23.146Z,38.78
2023-04-10T00:06:55.524Z,36.38
2023-04-10T00:07:27.562Z,36.90
2023-04-10T00:07:59.081Z,40.92
2023-04-10T00:08:30.611Z,37.85
2023-04-10T00:09:02.173Z,36.65
2023-04-10T00:09:34.293Z,38.20
2023-04-10T00:10:06.161Z,38.13
2023-04-10T00:10:37.744Z,36.08
2023-04-10T00:11:09.478Z,40.22
2023-04-10T00:11:41.046Z,38.28
2023-04-10T00:12:12.719Z,41.72
2023-04-10T00:12:44.264Z,37.63
2023-04-10T00:13:16.565Z,41.35
2023-04-10T00:13:48.057Z,36.47
2023-04-10T00:14:23.139Z,43.22
2023-04-10T00:14:54.713Z,36.45
2023-04-10T00:15:26.594Z,39.47
2023-04-10T00:15:58.475Z,37.67
2023-04-10T00:16:30.125Z,37.42
2023-04-10T00:17:01.899Z,39.85
2023-04-10T00:17:33.637Z,39.97
2023-04-10T00:18:05.316Z,40.42
2023-04-10T00:18:36.977Z,41.10
2023-04-10T00:19:08.771Z,36.45
2023-04-10T00:19:40.546Z,36.45
2023-04-10T00:20:12.536Z,37.13
2023-04-10T00:20:44.275Z,39.40
2023-04-10T00:21:15.881Z,37.97
2023-04-10T00:21:47.507Z,35.28
2023-04-10T00:22:19.010Z,37.17
2023-04-10T00:22:50.826Z,36.80
2023-04-10T00:23:22.471Z,35.38
2023-04-10T00:23:54.385Z,35.40
2023-04-10T00:24:26.189Z,36.53
2023-04-10T00:24:57.722Z,32.97
2023-04-10T00:25:29.292Z,37.15
2023-04-10T00:26:01.600Z,36.08
2023-04-10T00:26:33.326Z,37.17
2023-04-10T00:27:04.898Z,33.05
2023-04-10T00:27:36.463Z,33.47
2023-04-10T00:28:07.991Z,36.03
2023-04-10T00:28:39.542Z,33.50
2023-04-10T00:29:11.164Z,36.00
2023-04-10T00:29:42.768Z,33.45
2023-04-10T00:30:14.414Z,35.60
2023-04-10T00:30:45.953Z,31.70
2023-04-10T00:31:17.521Z,32.55
2023-04-10T00:31:49.879Z,33.08
2023-04-10T00:32:21.551Z,35.00
2023-04-10T00:32:53.246Z,34.25
2023-04-10T00:33:24.953Z,30.92
2023-04-10T00:33:56.543Z,32.15
2023-04-10T00:34:28.154Z,34.60
2023-04-10T00:34:59.720Z,30.17
2023-04-10T00:35:31.671Z,36.72
2023-04-10T00:36:03.825Z,34.72
2023-04-10T00:36:35.683Z,31.20
2023-04-10T00:37:07.372Z,31.92
2023-04-10T00:37:39.113Z,35.17
2023-04-10T00:38:10.701Z,33.72
2023-04-10T00:38:42.600Z,30.77
2023-04-10T00:39:14.551Z,32.22
2023-04-10T00:39:46.435Z,34.47
2023-04-10T00:40:18.093Z,31.73
2023-04-10T00:40:49.651Z,33.20
2023-04-10T00:41:21.697Z,34.40
2023-04-10T00:41:53.310Z,31.35
2023-04-10T00:42:24.890Z,30.98
2023-04-10T00:42:56.438Z,33.42
2023-04-10T00:43:27.988Z,31.50
2023-04-10T00:44:00.249Z,36.45
2023-04-10T00:44:32.006Z,31.55
2023-04-10T00:45:03.968Z,32.53
2023-04-10T00:45:36.026Z,31.95
2023-04-10T00:46:07.691Z,34.50
2023-04-10T00:46:40.293Z,33.70
2023-04-10T00:47:13.407Z,33.55
2023-04-10T00:47:45.273Z,37.42
2023-04-10T00:48:17.114Z,32.70
2023-04-10T00:48:48.841Z,30.95
2023-04-10T00:49:20.622Z,32.20
2023-04-10T00:49:52.271Z,30.23
2023-04-10T00:50:24.255Z,33.53
2023-04-10T00:50:56.024Z,32.30
2023-04-10T00:51:27.559Z,35.63
2023-04-10T00:51:59.152Z,36.33
2023-04-10T00:52:31.045Z,34.47
2023-04-10T00:53:03.077Z,33.85
2023-04-10T00:53:34.599Z,28.85
2023-04-10T00:54:06.632Z,30.88
2023-04-10T00:54:38.600Z,28.08
2023-04-10T00:55:11.107Z,33.40
2023-04-10T00:55:43.374Z,32.83
2023-04-10T00:56:15.530Z,32.10
2023-04-10T00:56:47.244Z,34.58
2023-04-10T00:57:18.860Z,36.40
2023-04-10T00:57:50.593Z,32.20
2023-04-10T00:58:22.140Z,27.55
2023-04-10T00:58:53.623Z,34.67
2023-04-10T00:59:25.404Z,31.95
2023-04-10T00:59:57.042Z,29.15
2023-04-10T01:00:29.074Z,27.55
2023-04-10T01:01:01.028Z,30.60
2023-04-10T01:01:32.637Z,31.05
2023-04-10T01:02:04.478Z,33.03
2023-04-10T01:02:36.591Z,30.42
2023-04-10T01:03:09.711Z,28.27
2023-04-10T01:03:42.934Z,32.67
2023-04-10T01:04:14.825Z,30.75
2023-04-10T01:04:46.643Z,28.52
2023-04-10T01:05:18.388Z,27.67
2023-04-10T01:06:17.608Z,31.77
2023-04-10T01:06:58.092Z,29.92
2023-04-10T01:07:48.128Z,31.10
2023-04-10T01:08:35.955Z,38.45
2023-04-10T01:09:36.711Z,29.33
2023-04-10T01:10:34.349Z,27.63
2023-04-10T01:11:16.413Z,30.73
2023-04-10T01:11:53.836Z,25.40
2023-04-10T01:12:58.579Z,32.83
2023-04-10T01:13:35.643Z,29.15
2023-04-10T01:14:33.361Z,30.08
2023-04-10T01:15:09.171Z,30.25
2023-04-10T01:15:58.627Z,30.55
2023-04-10T01:16:43.344Z,27.63
2023-04-10T01:17:56.409Z,29.35
2023-04-10T01:18:34.938Z,30.92
2023-04-10T01:19:21.486Z,29.40
2023-04-10T01:20:00.326Z,35.38
2023-04-10T01:20:35.041Z,29.15
2023-04-10T01:21:09.370Z,29.67
2023-04-10T01:21:41.602Z,27.90
2023-04-10T01:22:14.312Z,29.98
2023-04-10T01:22:56.755Z,27.38
2023-04-10T01:23:31.710Z,27.15
2023-04-10T01:24:32.711Z,27.65
2023-04-10T01:25:26.110Z,30.30
2023-04-10T01:26:03.348Z,27.25
2023-04-10T01:27:08.267Z,28.67
2023-04-10T01:28:54.344Z,24.05
2023-04-10T01:29:27.970Z,26.77
2023-04-10T01:30:03.900Z,27.75
2023-04-10T01:30:37.115Z,25.35
2023-04-10T01:31:11.889Z,27.25
2023-04-10T01:31:53.480Z,32.33
2023-04-10T01:32:25.385Z,25.40
2023-04-10T01:32:59.706Z,26.17
2023-04-10T01:33:39.823Z,25.65
2023-04-10T01:34:20.612Z,31.23
2023-04-10T01:34:54.828Z,29.70
2023-04-10T01:35:29.305Z,25.35
2023-04-10T01:36:03.507Z,30.58
2023-04-10T01:36:50.037Z,27.95
2023-04-10T01:37:32.084Z,30.02
2023-04-10T01:38:05.466Z,25.63
2023-04-10T01:38:38.104Z,31.90
2023-04-10T01:39:10.356Z,29.00
2023-04-10T01:39:42.798Z,28.38
2023-04-10T01:40:15.957Z,26.38
2023-04-10T01:40:51.291Z,24.15
2023-04-10T01:41:31.664Z,26.75
2023-04-10T01:42:05.861Z,28.48
2023-04-10T01:42:49.010Z,23.40
2023-04-10T01:43:21.185Z,27.00
2023-04-10T01:43:56.180Z,28.13
2023-04-10T01:44:30.126Z,28.85
2023-04-10T01:45:02.092Z,27.52
2023-04-10T01:45:33.902Z,29.75
2023-04-10T01:46:06.042Z,26.05
2023-04-10T01:46:38.315Z,22.85
2023-04-10T01:47:10.078Z,25.98
2023-04-10T01:47:42.972Z,25.83
2023-04-10T01:48:16.599Z,24.75
2023-04-10T01:48:48.648Z,32.28
2023-04-10T01:49:20.493Z,24.42
2023-04-10T01:49:53.684Z,24.63
2023-04-10T01:50:27.932Z,25.55
2023-04-10T01:51:03.072Z,27.92
2023-04-10T01:51:35.823Z,25.23
2023-04-10T01:52:13.401Z,28.27
2023-04-10T01:52:47.703Z,22.20
2023-04-10T01:53:23.640Z,24.55
2023-04-10T01:53:56.037Z,26.77
2023-04-10T01:54:32.885Z,27.70
2023-04-10T01:55:08.353Z,26.73
2023-04-10T01:55:54.276Z,26.60
2023-04-10T01:56:26.494Z,26.48
2023-04-10T01:57:02.214Z,31.20
2023-04-10T01:57:36.467Z,26.45
2023-04-10T01:58:08.714Z,28.75
2023-04-10T01:58:41.015Z,24.90
2023-04-10T01:59:12.988Z,24.42
2023-04-10T01:59:44.622Z,22.65
2023-04-10T02:00:16.928Z,27.65
2023-04-10T02:00:48.770Z,24.52
2023-04-10T02:01:29.139Z,26.50
2023-04-10T02:02:02.128Z,25.80
2023-04-10T02:02:34.604Z,25.85
2023-04-10T02:03:06.618Z,28.35
2023-04-10T02:03:38.613Z,29.65
2023-04-10T02:04:11.172Z,25.50
2023-04-10T02:04:42.852Z,24.63
2023-04-10T02:05:16.018Z,26.08
2023-04-10T02:06:05.607Z,26.67
2023-04-10T02:07:11.234Z,27.77
2023-04-10T02:07:47.251Z,25.95
2023-04-10T02:08:27.586Z,27.02
2023-04-10T02:09:10.307Z,24.95
2023-04-10T02:09:55.035Z,24.70
2023-04-10T02:10:43.764Z,24.83
2023-04-10T02:11:15.411Z,26.02
2023-04-10T02:12:02.102Z,26.75
2023-04-10T02:12:53.973Z,28.45
2023-04-10T02:13:29.539Z,29.00
2023-04-10T02:14:04.605Z,23.67
2023-04-10T02:14:42.933Z,26.50
2023-04-10T02:15:17.012Z,25.42
2023-04-10T02:15:50.935Z,28.83
2023-04-10T02:16:23.780Z,26.33
2023-04-10T02:16:56.501Z,26.65
2023-04-10T02:17:29.920Z,24.58
2023-04-10T02:18:04.872Z,25.27
2023-04-10T02:18:37.318Z,23.50
2023-04-10T02:19:10.537Z,26.17
2023-04-10T02:19:42.735Z,32.08
2023-04-10T02:20:16.251Z,26.23
2023-04-10T02:20:47.978Z,24.65
2023-04-10T02:21:19.579Z,26.55
2023-04-10T02:21:51.946Z,24.10
2023-04-10T02:22:25.519Z,24.65
2023-04-10T02:22:59.550Z,24.35
2023-04-10T02:23:31.080Z,24.40
2023-04-10T02:24:02.711Z,29.27
2023-04-10T02:24:35.002Z,26.23
2023-04-10T02:25:07.268Z,24.90
2023-04-10T02:25:39.474Z,27.40
2023-04-10T02:27:00.130Z,25.17
2023-04-10T02:27:34.309Z,26.90
2023-04-10T02:28:07.264Z,26.95
2023-04-10T02:28:39.643Z,21.48
2023-04-10T02:29:12.022Z,23.88
2023-04-10T02:29:43.642Z,22.33
2023-04-10T02:30:15.346Z,24.92
2023-04-10T02:30:47.373Z,26.13
2023-04-10T02:31:19.083Z,24.73
2023-04-10T02:31:50.802Z,21.77
2023-04-10T02:32:24.502Z,21.95
2023-04-10T02:32:56.292Z,28.55
2023-04-10T02:33:27.999Z,24.55
2023-04-10T02:33:59.577Z,23.60
2023-04-10T02:34:31.159Z,20.70
2023-04-10T02:35:04.104Z,24.38
2023-04-10T02:35:36.198Z,25.17
2023-04-10T02:36:09.068Z,23.48
2023-04-10T02:36:40.710Z,26.58
2023-04-10T02:37:13.913Z,21.25
2023-04-10T02:37:47.449Z,22.65
2023-04-10T02:38:20.647Z,24.38
2023-04-10T02:38:52.423Z,22.58
2023-04-10T02:39:26.037Z,28.23
2023-04-10T02:39:57.694Z,22.65
2023-04-10T02:40:30.787Z,19.67
2023-04-10T02:41:16.337Z,27.35
2023-04-10T02:41:48.006Z,18.83
2023-04-10T02:42:19.625Z,22.00
2023-04-10T02:42:51.613Z,21.77
2023-04-10T02:43:23.226Z,22.33
2023-04-10T02:43:55.442Z,21.63
2023-04-10T02:44:31.262Z,22.48
2023-04-10T02:45:03.086Z,25.90
2023-04-10T02:45:40.427Z,17.17
2023-04-10T02:46:13.362Z,24.80
2023-04-10T02:46:46.531Z,22.02
2023-04-10T02:47:18.860Z,28.90
2023-04-10T02:47:51.921Z,24.42
2023-04-10T02:48:24.022Z,22.05
2023-04-10T02:49:01.238Z,24.25
2023-04-10T02:49:35.761Z,24.15
2023-04-10T02:50:14.286Z,26.92
2023-04-10T02:50:50.854Z,21.30
2023-04-10T02:51:22.429Z,23.67
2023-04-10T02:51:54.101Z,21.80
2023-04-10T02:52:25.695Z,21.77
2023-04-10T02:52:57.245Z,24.10
2023-04-10T02:53:28.941Z,22.02
2023-04-10T02:54:04.011Z,20.35
2023-04-10T02:54:37.566Z,21.85
2023-04-10T02:55:09.952Z,19.00
2023-04-10T02:55:43.142Z,21.85
2023-04-10T02:56:15.009Z,22.95
2023-04-10T02:56:47.271Z,21.55
2023-04-10T02:57:18.830Z,24.20
2023-04-10T02:57:51.580Z,21.52
2023-04-10T02:58:23.134Z,24.13
2023-04-10T02:58:57.908Z,20.63
2023-04-10T02:59:29.994Z,21.10
2023-04-10T03:00:04.701Z,22.27
2023-04-10T03:00:54.911Z,20.70
2023-04-10T03:01:43.490Z,23.50
2023-04-10T03:02:15.904Z,22.67
2023-04-10T03:02:47.653Z,23.85
2023-04-10T03:03:22.992Z,19.98
2023-04-10T03:03:58.906Z,18.55
2023-04-10T03:04:36.287Z,24.35
2023-04-10T03:05:09.030Z,21.48
2023-04-10T03:05:41.084Z,23.20
2023-04-10T03:06:13.403Z,22.50
2023-04-10T03:06:47.067Z,23.17
2023-04-10T03:07:18.606Z,19.85
2023-04-10T03:07:50.411Z,20.55
2023-04-10T03:08:22.884Z,20.58
2023-04-10T03:08:55.357Z,20.10
2023-04-10T03:09:26.932Z,26.63
2023-04-10T03:09:59.142Z,21.70
2023-04-10T03:10:31.088Z,25.67
2023-04-10T03:11:02.627Z,21.88
2023-04-10T03:11:34.356Z,21.00
2023-04-10T03:12:05.941Z,22.65
2023-04-10T03:12:37.603Z,19.38
2023-04-10T03:13:09.167Z,19.02
2023-04-10T03:13:40.721Z,19.58
2023-04-10T03:14:12.256Z,21.70
2023-04-10T03:14:43.821Z,19.25
2023-04-10T03:15:16.288Z,22.33
2023-04-10T03:15:47.984Z,21.27
2023-04-10T03:16:19.824Z,19.20
2023-04-10T03:16:52.124Z,20.85
2023-04-10T03:17:23.682Z,21.55
2023-04-10T03:17:56.609Z,21.13
2023-04-10T03:18:28.182Z,19.58
2023-04-10T03:19:01.183Z,20.67
2023-04-10T03:19:32.786Z,19.73
2023-04-10T03:20:04.848Z,22.00
2023-04-10T03:20:39.930Z,19.65
2023-04-10T03:21:11.539Z,21.10
2023-04-10T03:21:43.100Z,22.77
2023-04-10T03:22:14.710Z,22.30
2023-04-10T03:22:46.251Z,19.80
2023-04-10T03:23:17.834Z,20.05
2023-04-10T03:23:49.366Z,20.38
2023-04-10T03:24:21.266Z,19.77
2023-04-10T03:24:52.802Z,23.08
2023-04-10T03:25:24.412Z,22.77
2023-04-10T03:25:56.283Z,22.45
2023-04-10T03:26:31.703Z,19.38
2023-04-10T03:27:03.660Z,23.70
2023-04-10T03:27:35.841Z,18.27
2023-04-10T03:28:08.139Z,19.85
2023-04-10T03:28:41.405Z,20.17
2023-04-10T03:29:18.932Z,21.20
2023-04-10T03:29:50.628Z,19.10
2023-04-10T03:30:22.706Z,19.83
2023-04-10T03:30:54.652Z,21.55
2023-04-10T03:31:26.258Z,18.08
2023-04-10T03:32:00.907Z,18.33
2023-04-10T03:32:32.842Z,20.42
2023-04-10T03:33:04.411Z,21.52
2023-04-10T03:33:36.472Z,17.75
2023-04-10T03:34:07.994Z,19.40
2023-04-10T03:34:39.546Z,18.83
2023-04-10T03:35:11.182Z,17.75
2023-04-10T03:35:43.003Z,17.98
2023-04-10T03:36:14.916Z,22.95
2023-04-10T03:36:46.672Z,20.40
2023-04-10T03:37:19.860Z,22.50
2023-04-10T03:37:51.499Z,22.98
2023-04-10T03:38:23.292Z,16.80
2023-04-10T03:38:55.365Z,20.83
2023-04-10T03:39:26.887Z,22.90
2023-04-10T03:39:58.576Z,21.48
2023-04-10T03:40:30.356Z,19.25
2023-04-10T03:41:02.313Z,20.35
2023-04-10T03:41:36.362Z,18.17
2023-04-10T03:42:07.878Z,19.80
2023-04-10T03:42:39.597Z,20.15
2023-04-10T03:43:11.736Z,20.85
2023-04-10T03:43:43.456Z,18.08
2023-04-10T03:44:15.413Z,16.92
2023-04-10T03:44:46.960Z,18.38
2023-04-10T03:45:18.642Z,19.00
2023-04-10T03:45:50.402Z,19.90
2023-04-10T03:46:22.735Z,18.02
2023-04-10T03:46:55.672Z,22.27
2023-04-10T03:47:27.429Z,22.30
2023-04-10T03:47:59.359Z,19.23
2023-04-10T03:48:32.353Z,22.05
2023-04-10T03:49:04.167Z,20.58
2023-04-10T03:49:37.425Z,21.25
2023-04-10T03:50:11.340Z,17.98
2023-04-10T03:50:50.890Z,18.98
2023-04-10T03:51:24.578Z,21.58
2023-04-10T03:51:56.444Z,17.33
2023-04-10T03:52:28.284Z,18.33
2023-04-10T03:53:01.605Z,18.90
2023-04-10T03:53:36.057Z,18.52
2023-04-10T03:54:11.420Z,18.85
2023-04-10T03:54:43.037Z,19.08
2023-04-10T03:55:25.904Z,19.92
2023-04-10T03:55:57.584Z,21.20
2023-04-10T03:56:30.249Z,20.65
2023-04-10T03:57:03.201Z,16.80
2023-04-10T03:57:34.824Z,18.75
2023-04-10T03:58:08.981Z,17.83
2023-04-10T03:58:41.693Z,18.67
2023-04-10T03:59:16.569Z,19.20
2023-04-10T03:59:48.365Z,20.75
2023-04-10T04:00:20.658Z,21.27
2023-04-10T04:00:52.120Z,19.30
2023-04-10T04:01:49.205Z,24.75
2023-04-10T04:02:21.066Z,19.58
2023-04-10T04:02:54.295Z,26.13
2023-04-10T04:04:04.769Z,19.25
2023-04-10T04:04:54.966Z,20.73
2023-04-10T04:05:44.839Z,21.92
2023-04-10T04:06:31.147Z,19.40
2023-04-10T04:07:20.204Z,19.98
2023-04-10T04:08:03.378Z,17.35
2023-04-10T04:08:40.415Z,20.13
2023-04-10T04:09:21.824Z,19.15
2023-04-10T04:10:05.721Z,22.38
2023-04-10T04:10:55.883Z,19.27
2023-04-10T04:11:38.557Z,20.45
2023-04-10T04:12:22.154Z,22.67
2023-04-10T04:13:03.516Z,21.35
2023-04-10T04:13:58.159Z,18.13
2023-04-10T04:14:45.311Z,17.27
2023-04-10T04:15:49.568Z,16.77
2023-04-10T04:16:41.440Z,19.67
2023-04-10T04:17:39.379Z,18.38
2023-04-10T04:18:11.065Z,19.83
2023-04-10T04:18:50.224Z,21.50
2023-04-10T04:19:43.808Z,22.73
2023-04-10T04:20:33.685Z,19.50
2023-04-10T04:21:18.231Z,20.98
2023-04-10T04:22:08.388Z,21.05
2023-04-10T04:22:58.616Z,19.02
2023-04-10T04:24:05.187Z,20.70
2023-04-10T04:25:11.574Z,19.15
2023-04-10T04:26:07.122Z,22.27
2023-04-10T04:26:57.598Z,18.67
2023-04-10T04:27:52.474Z,19.70
2023-04-10T04:28:47.351Z,18.73
2023-04-10T04:29:29.078Z,18.27
2023-04-10T04:30:14.932Z,19.85
2023-04-10T04:31:09.024Z,17.13
2023-04-10T04:32:02.913Z,20.85
2023-04-10T04:32:57.645Z,20.75
2023-04-10T04:33:46.722Z,20.40
2023-04-10T04:34:36.677Z,17.38
2023-04-10T04:35:14.456Z,19.02
2023-04-10T04:36:04.915Z,19.02
2023-04-10T04:36:59.912Z,20.58
2023-04-10T04:37:46.046Z,21.92
2023-04-10T04:38:40.501Z,22.65
2023-04-10T04:39:31.238Z,17.38
2023-04-10T04:40:25.502Z,21.33
2023-04-10T04:41:12.637Z,19.92
2023-04-10T04:42:08.676Z,23.65
2023-04-10T04:43:12.680Z,17.98
2023-04-10T04:44:02.385Z,20.33
2023-04-10T04:45:09.943Z,18.45
2023-04-10T04:46:01.836Z,18.63
2023-04-10T04:46:56.309Z,19.55
2023-04-10T04:47:46.480Z,25.98
2023-04-10T04:48:30.730Z,20.23
2023-04-10T04:49:15.942Z,21.92
2023-04-10T04:50:16.938Z,19.73
2023-04-10T04:51:08.740Z,18.27
2023-04-10T04:51:56.148Z,22.70
2023-04-10T04:52:38.374Z,23.95
2023-04-10T04:53:26.328Z,21.50
2023-04-10T04:54:04.186Z,17.35
2023-04-10T04:54:35.686Z,19.05
2023-04-10T04:55:20.190Z,20.30
2023-04-10T04:56:17.836Z,22.05
2023-04-10T04:57:10.644Z,21.15
2023-04-10T04:58:08.032Z,21.05
2023-04-10T04:59:17.792Z,20.63
2023-04-10T05:00:24.622Z,17.27
2023-04-10T05:01:22.531Z,19.60
2023-04-10T05:02:18.799Z,20.90
2023-04-10T05:03:10.535Z,19.52
2023-04-10T05:03:54.781Z,19.27
2023-04-10T05:04:42.127Z,21.77
2023-04-10T05:05:22.288Z,27.30
2023-04-10T05:06:14.440Z,22.33
2023-04-10T05:07:12.235Z,24.25
2023-04-10T05:07:43.854Z,21.98
2023-04-10T05:08:41.742Z,19.42
2023-04-10T05:09:51.813Z,24.02
2023-04-10T05:10:26.562Z,25.58
2023-04-10T05:11:14.522Z,22.27
2023-04-10T05:12:11.875Z,20.73
2023-04-10T05:12:56.741Z,21.75
2023-04-10T05:13:35.549Z,24.83
2023-04-10T05:14:25.435Z,23.50
2023-04-10T05:15:17.327Z,23.00
2023-04-10T05:16:19.021Z,22.00
2023-04-10T05:17:15.083Z,19.45
2023-04-10T05:17:51.167Z,24.00
2023-04-10T05:18:41.650Z,21.02
2023-04-10T05:19:31.054Z,18.20
2023-04-10T05:20:27.256Z,18.00
2023-04-10T05:21:07.575Z,18.90
2023-04-10T05:21:46.289Z,25.00
2023-04-10T05:22:28.651Z,22.67
2023-04-10T05:23:20.476Z,25.85
2023-04-10T05:24:01.715Z,18.58
2023-04-10T05:24:42.135Z,21.88
2023-04-10T05:25:16.577Z,25.15
2023-04-10T05:26:23.300Z,23.45
2023-04-10T05:26:59.503Z,22.63
2023-04-10T05:27:57.132Z,25.02
2023-04-10T05:28:44.420Z,23.25
2023-04-10T05:29:34.814Z,20.65
2023-04-10T05:30:20.062Z,26.17
2023-04-10T05:31:14.565Z,23.00
2023-04-10T05:32:00.636Z,20.80
2023-04-10T05:32:58.605Z,26.25
2023-04-10T05:34:02.386Z,21.17
2023-04-10T05:34:40.864Z,22.98
2023-04-10T05:35:16.378Z,20.48
2023-04-10T05:36:08.622Z,21.63
2023-04-10T05:36:59.314Z,24.80
2023-04-10T05:37:54.214Z,21.35
2023-04-10T05:38:30.897Z,21.77
2023-04-10T05:39:21.031Z,18.33
2023-04-10T05:40:08.679Z,21.15
2023-04-10T05:40:55.810Z,21.35
2023-04-10T05:41:45.961Z,22.58
2023-04-10T05:42:26.625Z,22.20
2023-04-10T05:43:16.815Z,26.92
2023-04-10T05:44:07.581Z,22.10
2023-04-10T05:44:57.697Z,21.02
2023-04-10T05:45:45.802Z,20.52
2023-04-10T05:46:52.867Z,24.10
2023-04-10T05:47:32.702Z,23.10
2023-04-10T05:48:26.263Z,22.38
2023-04-10T05:49:24.213Z,17.67
2023-04-10T05:50:23.114Z,19.48
2023-04-10T05:51:16.043Z,19.58
2023-04-10T05:52:07.943Z,18.52
2023-04-10T05:53:02.557Z,26.13
2023-04-10T05:54:09.250Z,20.40
2023-04-10T05:54:54.044Z,19.52
2023-04-10T05:56:04.102Z,21.80
2023-04-10T05:56:54.129Z,19.35
2023-04-10T05:57:44.093Z,21.92
2023-04-10T05:58:41.699Z,18.83
2023-04-10T05:59:36.108Z,20.27
2023-04-10T06:00:45.357Z,20.02
2023-04-10T06:01:49.235Z,18.15
2023-04-10T06:02:21.918Z,16.92
2023-04-10T06:02:54.256Z,19.58
2023-04-10T06:03:30.985Z,18.35
2023-04-10T06:04:06.120Z,19.85
2023-04-10T06:04:38.601Z,19.02
2023-04-10T06:05:10.753Z,18.67
2023-04-10T06:05:43.174Z,20.02
2023-04-10T06:06:14.750Z,20.50
2023-04-10T06:06:46.353Z,17.85
2023-04-10T06:07:17.934Z,21.67
2023-04-10T06:07:49.467Z,19.92
2023-04-10T06:08:21.434Z,18.58
2023-04-10T06:08:53.374Z,23.17
2023-04-10T06:09:25.233Z,16.60
2023-04-10T06:09:56.811Z,18.15
2023-04-10T06:10:30.795Z,15.85
2023-04-10T06:11:02.722Z,18.90
2023-04-10T06:11:36.664Z,20.35
2023-04-10T06:12:08.996Z,16.27
2023-04-10T06:12:42.112Z,18.48
2023-04-10T06:13:17.673Z,20.33
2023-04-10T06:13:49.245Z,21.55
2023-04-10T06:14:21.084Z,18.48
2023-04-10T06:14:52.720Z,18.83
2023-04-10T06:15:26.649Z,20.15
2023-04-10T06:15:58.567Z,18.70
2023-04-10T06:16:30.877Z,17.02
2023-04-10T06:17:03.314Z,18.65
2023-04-10T06:17:35.124Z,16.75
2023-04-10T06:18:06.696Z,18.67
2023-04-10T06:18:38.308Z,21.67
2023-04-10T06:19:09.896Z,17.88
2023-04-10T06:19:41.547Z,22.63
2023-04-10T06:20:13.519Z,18.20
2023-04-10T06:20:45.283Z,19.13
2023-04-10T06:21:16.852Z,18.73
2023-04-10T06:21:53.156Z,17.98
2023-04-10T06:22:26.801Z,19.13
2023-04-10T06:22:59.358Z,19.27
2023-04-10T06:23:31.088Z,16.80
2023-04-10T06:24:02.655Z,15.95
2023-04-10T06:24:34.270Z,19.35
2023-04-10T06:25:09.266Z,17.00
2023-04-10T06:25:41.794Z,15.90
2023-04-10T06:26:13.595Z,16.52
2023-04-10T06:26:45.150Z,16.30
2023-04-10T06:27:17.092Z,16.42
2023-04-10T06:27:49.621Z,16.75
2023-04-10T06:28:21.305Z,16.50
2023-04-10T06:28:56.713Z,15.32
2023-04-10T06:29:28.949Z,15.90
2023-04-10T06:30:00.894Z,16.50
2023-04-10T06:30:34.676Z,20.00
2023-04-10T06:31:07.557Z,16.08
2023-04-10T06:31:41.431Z,17.33
2023-04-10T06:32:13.375Z,18.95
2023-04-10T06:32:45.350Z,15.80
2023-04-10T06:33:17.548Z,16.67
2023-04-10T06:33:50.500Z,15.45
2023-04-10T06:34:22.257Z,15.80
2023-04-10T06:35:00.833Z,16.50
2023-04-10T06:35:32.852Z,16.45
2023-04-10T06:36:04.808Z,16.27
2023-04-10T06:36:41.010Z,14.68
2023-04-10T06:37:12.736Z,16.75
2023-04-10T06:37:44.582Z,17.92
2023-04-10T06:38:16.458Z,16.05
2023-04-10T06:38:48.404Z,21.00
2023-04-10T06:39:19.995Z,14.77
2023-04-10T06:39:51.492Z,14.48
2023-04-10T06:40:23.656Z,16.92
2023-04-10T06:40:55.243Z,18.40
2023-04-10T06:41:26.778Z,15.63
2023-04-10T06:42:01.342Z,18.42
2023-04-10T06:42:43.756Z,16.52
2023-04-10T06:43:27.939Z,15.32
2023-04-10T06:44:01.780Z,16.02
2023-04-10T06:44:34.793Z,16.38
2023-04-10T06:45:06.946Z,15.77
2023-04-10T06:45:38.557Z,14.35
2023-04-10T06:46:10.304Z,18.40
2023-04-10T06:46:41.807Z,13.25
2023-04-10T06:47:13.416Z,16.52
2023-04-10T06:47:45.008Z,14.30
2023-04-10T06:48:16.554Z,14.57
2023-04-10T06:48:48.126Z,15.88
2023-04-10T06:49:19.637Z,14.02
2023-04-10T06:49:51.314Z,16.88
2023-04-10T06:50:22.849Z,17.20
2023-04-10T06:50:54.437Z,16.17
2023-04-10T06:51:26.015Z,17.58
2023-04-10T06:52:06.850Z,13.57
2023-04-10T06:52:38.481Z,14.82
2023-04-10T06:53:10.006Z,17.33
2023-04-10T06:53:41.628Z,17.48
2023-04-10T06:54:13.184Z,15.25
2023-04-10T06:54:44.766Z,14.82
2023-04-10T06:55:17.155Z,16.45
2023-04-10T06:55:48.728Z,13.30
2023-04-10T06:56:20.960Z,13.52
2023-04-10T06:56:52.527Z,15.38
2023-04-10T06:57:24.073Z,15.10
2023-04-10T06:57:56.534Z,14.65
2023-04-10T06:58:28.160Z,14.48
2023-04-10T06:58:59.690Z,12.30
2023-04-10T06:59:31.801Z,12.82
2023-04-10T07:00:03.670Z,17.45
2023-04-10T07:00:35.197Z,13.73
2023-04-10T07:01:07.008Z,15.50
2023-04-10T07:01:38.611Z,14.88
2023-04-10T07:02:10.382Z,15.50
2023-04-10T07:02:41.979Z,17.63
2023-04-10T07:03:13.649Z,13.48
2023-04-10T07:03:45.422Z,13.95
2023-04-10T07:04:16.975Z,11.98
2023-04-10T07:04:48.848Z,14.23
2023-04-10T07:05:20.472Z,15.95
2023-04-10T07:05:52.040Z,13.18
2023-04-10T07:06:23.616Z,15.50
2023-04-10T07:06:55.212Z,17.65
2023-04-10T07:07:26.796Z,13.52
2023-04-10T07:07:58.308Z,12.93
2023-04-10T07:08:30.104Z,13.65
2023-04-10T07:09:01.693Z,12.40
2023-04-10T07:09:33.230Z,11.93
2023-04-10T07:10:05.207Z,12.13
2023-04-10T07:10:36.850Z,13.65
2023-04-10T07:11:08.427Z,13.05
2023-04-10T07:11:39.982Z,13.93
2023-04-10T07:12:11.548Z,12.32
2023-04-10T07:12:43.440Z,11.90
2023-04-10T07:13:14.951Z,13.02
2023-04-10T07:13:46.559Z,13.80
2023-04-10T07:14:18.583Z,11.52
2023-04-10T07:14:50.220Z,13.40
2023-04-10T07:15:21.829Z,12.48
2023-04-10T07:15:53.365Z,15.57
2023-04-10T07:16:25.841Z,13.93
2023-04-10T07:16:57.510Z,12.45
2023-04-10T07:17:29.149Z,11.52
2023-04-10T07:18:00.996Z,11.63
2023-04-10T07:18:32.568Z,14.25
2023-04-10T07:19:04.106Z,12.50
2023-04-10T07:19:35.926Z,10.85
2023-04-10T07:20:08.005Z,13.45
2023-04-10T07:20:39.533Z,11.40
2023-04-10T07:21:12.641Z,10.40
2023-04-10T07:21:44.227Z,11.77
2023-04-10T07:22:15.947Z,13.02
2023-04-10T07:22:47.550Z,11.45
2023-04-10T07:23:20.421Z,10.90
2023-04-10T07:23:52.226Z,11.32
2023-04-10T07:24:24.214Z,12.23
2023-04-10T07:24:56.377Z,11.45
2023-04-10T07:25:27.976Z,10.63
2023-04-10T07:25:59.589Z,10.60
2023-04-10T07:26:31.103Z,10.75
2023-04-10T07:27:03.699Z,10.65
2023-04-10T07:27:35.295Z,12.55
2023-04-10T07:28:06.828Z,10.25
2023-04-10T07:28:38.362Z,11.60
2023-04-10T07:29:09.917Z,11.05
2023-04-10T07:29:41.591Z,11.40
2023-04-10T07:30:13.930Z,10.82
2023-04-10T07:30:46.178Z,10.18
2023-04-10T07:31:18.300Z,9.85
2023-04-10T07:31:49.919Z,9.85
2023-04-10T07:32:22.222Z,10.63
2023-04-10T07:32:54.123Z,10.88
2023-04-10T07:33:26.089Z,12.23
2023-04-10T07:33:57.821Z,11.90
2023-04-10T07:34:30.971Z,11.07
2023-04-10T07:35:02.888Z,9.85
2023-04-10T07:35:34.535Z,10.85
2023-04-10T07:36:06.990Z,13.23
2023-04-10T07:36:38.757Z,14.73
2023-04-10T07:37:10.591Z,14.13
2023-04-10T07:37:43.992Z,11.05
2023-04-10T07:38:15.542Z,10.10
2023-04-10T07:38:47.215Z,9.93
2023-04-10T07:39:18.764Z,9.75
2023-04-10T07:39:50.324Z,9.35
2023-04-10T07:40:22.063Z,11.30
2023-04-10T07:40:57.439Z,10.55
2023-04-10T07:41:29.073Z,10.75
2023-04-10T07:42:00.805Z,9.70
2023-04-10T07:42:32.328Z,10.38
2023-04-10T07:43:03.870Z,9.52
2023-04-10T07:43:35.502Z,11.20
2023-04-10T07:44:07.012Z,9.55
2023-04-10T07:44:38.700Z,14.05
2023-04-10T07:45:11.005Z,10.00
2023-04-10T07:45:42.653Z,8.95
2023-04-10T07:46:14.798Z,10.40
2023-04-10T07:46:46.391Z,9.85
2023-04-10T07:47:18.126Z,8.77
2023-04-10T07:47:49.811Z,11.25
2023-04-10T07:48:21.501Z,13.07
2023-04-10T07:48:55.425Z,10.70
2023-04-10T07:49:27.614Z,13.65
2023-04-10T07:49:59.216Z,10.35
2023-04-10T07:50:31.118Z,11.15
2023-04-10T07:51:02.921Z,10.20
2023-04-10T07:51:34.485Z,10.35
2023-04-10T07:52:06.296Z,10.10
2023-04-10T07:52:37.843Z,10.75
2023-04-10T07:53:10.865Z,12.48
2023-04-10T07:53:42.480Z,10.57
2023-04-10T07:54:14.080Z,9.57
2023-04-10T07:54:45.612Z,10.88